Terminal Aerodrome Forecast
Issued by NWS

Home | Current Version | Previous Version | Graphics & Text | Print | Product List | Glossary On
Versions: 1 2 3 4 5 6 7 8 9 10 11 12 13 14 15
000
FTUS43 KDVN 032100 AAD
TAFCID
TAF AMD
KCID 032158Z 0322/0418 30017G24KT P6SM OVC020
     FM040400 32015G20KT P6SM SCT012 BKN070
     FM041400 32013KT P6SM SCT070=

USA.gov is the U.S. government's official web portal to all federal, state and local government web resources and services.